Time;durP1;ratioP1;P1;durP2;ratioP2;P2;SDS_P1;SDS_P2;PMS_P1;PMS_P2;Temp;Humidity;BMP_temperature;BMP_pressure;BME280_temperature;BME280_humidity;BME280_pressure;Samples;Min_cycle;Max_cycle;Signal;HPM_P1;HPM_P2
2022/11/19 00:01:30;;;;;;;2.92;1.90;;;;;;;;;;4381791;32;64944;-63
2022/11/19 00:04:17;;;;;;;3.67;1.83;;;;;;;;;;4381609;32;69290;-63
2022/11/19 00:07:04;;;;;;;3.87;2.25;;;;;;;;;;4370568;32;66683;-62
2022/11/19 00:09:51;;;;;;;2.55;1.80;;;;;;;;;;4370897;32;71973;-63
2022/11/19 00:12:55;;;;;;;;;;;;;;;;;;4371340;32;65151;-63
2022/11/19 00:15:42;;;;;;;2.85;2.15;;;;;;;;;;4381525;32;67860;-62
2022/11/19 00:18:29;;;;;;;;;;;;;;;;;;4371395;32;60184;-62
2022/11/19 00:21:15;;;;;;;2.75;2.12;;;;;;;;;;4382734;32;69573;-63
2022/11/19 00:24:02;;;;;;;5.05;2.42;;;;;;;;;;4381501;32;69589;-63
2022/11/19 00:26:48;;;;;;;2.83;2.03;;;;;;;;;;4370914;32;66547;-64
2022/11/19 00:29:35;;;;;;;;;;;;;;;;;;4371274;32;59201;-63
2022/11/19 00:32:22;;;;;;;3.78;2.25;;;;;;;;;;4382599;32;69766;-63
2022/11/19 00:35:08;;;;;;;;;;;;;;;;;;4381548;32;68050;-62
2022/11/19 00:37:55;;;;;;;3.55;2.20;;;;;;;;;;4385167;32;68374;-63
2022/11/19 00:40:42;;;;;;;2.87;2.10;;;;;;;;;;4373801;32;70641;-64
2022/11/19 00:43:47;;;;;;;3.20;2.20;;;;;;;;;;4385879;32;65962;-63
2022/11/19 00:46:34;;;;;;;3.28;2.05;;;;;;;;;;4385894;32;68096;-61
2022/11/19 00:49:21;;;;;;;4.82;2.40;;;;;;;;;;4363787;32;59406;-63
2022/11/19 00:52:07;;;;;;;6.62;2.12;;;;;;;;;;4363100;32;70930;-63
2022/11/19 00:54:54;;;;;;;2.80;1.90;;;;;;;;;;4381363;32;65649;-63
2022/11/19 00:57:41;;;;;;;2.62;2.00;;;;;;;;;;4370277;32;67038;-63
2022/11/19 01:00:27;;;;;;;3.70;2.10;;;;;;;;;;4381360;32;60080;-62
2022/11/19 01:03:14;;;;;;;2.58;2.00;;;;;;;;;;4370249;32;70380;-63
2022/11/19 01:06:01;;;;;;;3.62;2.50;;;;;;;;;;4369842;32;70329;-64
2022/11/19 01:08:49;;;;;;;4.68;2.22;;;;;;;;;;4370441;32;67401;-62
2022/11/19 01:11:36;;;;;;;2.55;2.05;;;;;;;;;;4382327;32;71240;-63
2022/11/19 01:14:23;;;;;;;3.42;2.17;;;;;;;;;;4373232;32;64898;-62
2022/11/19 01:17:11;;;;;;;3.80;2.30;;;;;;;;;;4372908;32;68483;-63
2022/11/19 01:19:57;;;;;;;5.05;2.65;;;;;;;;;;4383340;32;67726;-62
2022/11/19 01:22:45;;;;;;;4.35;2.20;;;;;;;;;;4372828;32;71408;-63
2022/11/19 01:25:31;;;;;;;3.70;2.20;;;;;;;;;;4373070;32;65985;-63
2022/11/19 01:28:18;;;;;;;2.90;1.98;;;;;;;;;;4371699;32;68464;-63
2022/11/19 01:31:32;;;;;;;3.58;2.40;;;;;;;;;;4383797;32;60012;-62
2022/11/19 01:34:18;;;;;;;3.70;2.55;;;;;;;;;;4383047;32;70478;-63
2022/11/19 01:37:05;;;;;;;;;;;;;;;;;;4372983;32;68273;-63
2022/11/19 01:39:52;;;;;;;4.12;2.40;;;;;;;;;;4383522;32;68090;-61
2022/11/19 01:42:52;;;;;;;3.17;2.30;;;;;;;;;;4372880;32;59212;-63
2022/11/19 01:45:47;;;;;;;3.90;2.45;;;;;;;;;;4383257;32;70454;-64
2022/11/19 01:48:34;;;;;;;4.10;2.80;;;;;;;;;;4372768;32;69256;-63
2022/11/19 01:51:43;;;;;;;4.10;2.53;;;;;;;;;;4372800;32;67523;-63
2022/11/19 01:54:43;;;;;;;4.60;2.78;;;;;;;;;;4361863;32;71406;-61
2022/11/19 01:57:30;;;;;;;3.70;2.20;;;;;;;;;;4371905;32;65799;-63
2022/11/19 02:00:16;;;;;;;3.12;2.20;;;;;;;;;;4361354;32;68464;-64
2022/11/19 02:03:03;;;;;;;4.03;2.30;;;;;;;;;;4372603;32;60302;-63
2022/11/19 02:05:51;;;;;;;3.53;2.60;;;;;;;;;;4372187;32;70669;-63
2022/11/19 02:08:43;;;;;;;3.55;2.25;;;;;;;;;;4361988;32;65504;-62
2022/11/19 02:11:36;;;;;;;3.05;2.28;;;;;;;;;;4382867;32;67796;-63
2022/11/19 02:14:47;;;;;;;3.03;2.20;;;;;;;;;;4372422;32;58910;-63
2022/11/19 02:17:43;;;;;;;3.28;2.30;;;;;;;;;;4372119;32;70504;-63
2022/11/19 02:20:53;;;;;;;4.03;2.12;;;;;;;;;;4382190;32;70462;-62
2022/11/19 02:23:49;;;;;;;3.83;2.40;;;;;;;;;;4371621;32;68650;-63
2022/11/19 02:27:06;;;;;;;2.75;1.92;;;;;;;;;;4382328;32;71486;-63
2022/11/19 02:30:07;;;;;;;2.55;2.00;;;;;;;;;;4371541;32;66203;-63
2022/11/19 02:33:03;;;;;;;2.83;2.08;;;;;;;;;;4382622;32;68227;-64
2022/11/19 02:36:13;;;;;;;3.47;2.30;;;;;;;;;;4382317;32;67873;-63
2022/11/19 02:39:40;;;;;;;2.67;2.10;;;;;;;;;;4371547;32;70704;-62
2022/11/19 02:42:49;;;;;;;2.75;1.90;;;;;;;;;;4368273;32;65690;-63
2022/11/19 02:45:42;;;;;;;3.53;2.17;;;;;;;;;;4382607;32;67987;-63
2022/11/19 02:48:42;;;;;;;4.25;2.22;;;;;;;;;;4371974;32;58896;-63
2022/11/19 02:51:29;;;;;;;2.90;2.15;;;;;;;;;;4382151;32;69761;-63
2022/11/19 02:54:17;;;;;;;2.42;1.85;;;;;;;;;;4371578;32;68425;-62
2022/11/19 02:57:04;;;;;;;2.25;1.95;;;;;;;;;;4371571;32;68010;-62
2022/11/19 03:06:24;;;;;;;1.67;1.58;;;;;;;;;;4381898;32;68381;-64
2022/11/19 03:09:11;;;;;;;2.97;1.40;;;;;;;;;;4371540;32;66740;-63
2022/11/19 03:12:16;;;;;;;1.42;1.33;;;;;;;;;;4382081;32;71651;-63
2022/11/19 03:19:01;;;;;;;2.37;1.67;;;;;;;;;;4370620;32;67498;-63
2022/11/19 03:21:56;;;;;;;1.17;1.07;;;;;;;;;;4383635;32;59565;-63
2022/11/19 03:24:47;;;;;;;1.70;1.33;;;;;;;;;;4381688;32;69449;-65
2022/11/19 03:27:46;;;;;;;2.00;1.52;;;;;;;;;;4371460;32;65799;-62
2022/11/19 03:30:33;;;;;;;1.85;1.58;;;;;;;;;;4381919;32;67784;-63
2022/11/19 03:33:57;;;;;;;2.08;1.33;;;;;;;;;;4370410;32;61123;-63
2022/11/19 03:36:44;;;;;;;2.42;1.27;;;;;;;;;;4287319;32;71562;-63
2022/11/19 03:39:33;;;;;;;2.28;1.42;;;;;;;;;;4371070;32;69780;-63
2022/11/19 03:42:21;;;;;;;2.00;1.50;;;;;;;;;;4381835;32;66682;-64
2022/11/19 03:45:15;;;;;;;2.72;1.67;;;;;;;;;;4371011;32;70693;-64
2022/11/19 03:48:03;;;;;;;2.15;1.67;;;;;;;;;;4381675;32;65196;-63
2022/11/19 03:50:53;;;;;;;4.10;1.40;;;;;;;;;;4370948;32;68206;-62
2022/11/19 03:53:40;;;;;;;2.45;1.30;;;;;;;;;;4360597;32;67690;-62
2022/11/19 03:56:27;;;;;;;;;;;;;;;;;;4371168;32;71731;-61
2022/11/19 03:59:14;;;;;;;2.00;1.42;;;;;;;;;;4383045;32;66269;-63
2022/11/19 04:02:07;;;;;;;2.72;1.50;;;;;;;;;;4360604;32;67909;-62
2022/11/19 04:04:53;;;;;;;1.98;1.60;;;;;;;;;;4371445;32;59838;-62
2022/11/19 04:07:40;;;;;;;1.98;1.30;;;;;;;;;;4370661;32;70459;-63
2022/11/19 04:10:27;;;;;;;3.03;1.75;;;;;;;;;;4381497;32;69748;-63
2022/11/19 04:13:14;;;;;;;1.83;1.37;;;;;;;;;;4370885;32;67511;-63
2022/11/19 04:16:01;;;;;;;1.55;1.45;;;;;;;;;;4381725;32;70945;-63
2022/11/19 04:18:48;;;;;;;2.47;1.80;;;;;;;;;;4382657;32;70265;-63
2022/11/19 04:21:35;;;;;;;2.42;1.70;;;;;;;;;;4370906;32;68495;-63
2022/11/19 04:24:21;;;;;;;2.75;1.90;;;;;;;;;;4360296;32;67526;-63
2022/11/19 04:27:08;;;;;;;4.68;2.05;;;;;;;;;;4370653;32;70640;-64
2022/11/19 04:29:55;;;;;;;3.62;1.70;;;;;;;;;;4359492;32;65746;-63
2022/11/19 04:32:42;;;;;;;3.78;2.12;;;;;;;;;;4370702;32;66946;-63
2022/11/19 04:35:28;;;;;;;2.90;1.70;;;;;;;;;;4381520;32;59676;-62
2022/11/19 04:38:16;;;;;;;2.62;1.60;;;;;;;;;;4359488;32;71150;-63
2022/11/19 04:41:02;;;;;;;1.83;1.00;;;;;;;;;;4381263;32;68890;-63
2022/11/19 04:43:49;;;;;;;1.98;1.10;;;;;;;;;;4370153;32;67473;-63
2022/11/19 04:46:36;;;;;;;1.37;0.90;;;;;;;;;;4373773;32;60237;-63
2022/11/19 04:49:23;;;;;;;1.05;0.80;;;;;;;;;;4361902;32;71721;-63
2022/11/19 04:52:09;;;;;;;;;;;;;;;;;;4373115;32;69579;-64
2022/11/19 04:54:56;;;;;;;0.80;0.80;;;;;;;;;;4383933;32;67163;-63
2022/11/19 04:57:43;;;;;;;1.00;0.85;;;;;;;;;;4372889;32;71746;-62
2022/11/19 05:00:30;;;;;;;0.88;0.80;;;;;;;;;;4373234;32;65965;-62
2022/11/19 05:03:17;;;;;;;0.70;0.70;;;;;;;;;;4373144;32;67044;-63
2022/11/19 05:06:04;;;;;;;0.75;0.70;;;;;;;;;;4373250;32;60138;-64
2022/11/19 05:08:50;;;;;;;1.08;0.95;;;;;;;;;;4361528;32;71403;-63
2022/11/19 05:11:37;;;;;;;2.05;1.65;;;;;;;;;;4383156;32;65625;-63
2022/11/19 05:14:23;;;;;;;1.95;1.65;;;;;;;;;;4384981;32;68465;-62
2022/11/19 05:17:11;;;;;;;2.50;1.65;;;;;;;;;;4361950;32;61076;-62
2022/11/19 05:19:59;;;;;;;;;;;;;;;;;;4373284;32;69670;-62
2022/11/19 05:22:45;;;;;;;;;;;;;;;;;;4384123;32;68264;-63
2022/11/19 05:25:34;;;;;;;4.82;2.83;;;;;;;;;;4384845;32;67188;-63
2022/11/19 05:28:21;;;;;;;5.00;3.17;;;;;;;;;;4385006;32;71961;-63
2022/11/19 05:31:08;;;;;;;4.20;1.85;;;;;;;;;;4362250;32;69472;-64
2022/11/19 05:33:54;;;;;;;2.70;1.80;;;;;;;;;;4383247;32;69643;-64
2022/11/19 05:36:41;;;;;;;3.80;2.22;;;;;;;;;;4384253;32;66771;-63
2022/11/19 05:39:28;;;;;;;;;;;;;;;;;;4383570;32;71671;-62
2022/11/19 05:42:14;;;;;;;4.85;2.85;;;;;;;;;;4383504;32;66384;-64
2022/11/19 05:45:00;;;;;;;3.33;2.45;;;;;;;;;;4383238;32;67994;-63
2022/11/19 05:47:52;;;;;;;3.42;2.20;;;;;;;;;;4350979;32;61176;-63
2022/11/19 05:50:41;;;;;;;3.35;2.00;;;;;;;;;;4372300;32;70708;-62
2022/11/19 05:53:28;;;;;;;4.22;2.80;;;;;;;;;;4372404;32;69517;-63
2022/11/19 05:56:15;;;;;;;3.90;2.10;;;;;;;;;;4382542;32;67909;-62
2022/11/19 05:59:02;;;;;;;2.78;1.87;;;;;;;;;;4362109;32;58882;-61
2022/11/19 06:01:49;;;;;;;2.15;1.52;;;;;;;;;;4383028;32;70565;-63
2022/11/19 06:04:36;;;;;;;4.28;2.87;;;;;;;;;;4361976;32;68626;-62
2022/11/19 06:07:22;;;;;;;4.18;2.65;;;;;;;;;;4382691;32;66724;-61
2022/11/19 06:10:10;;;;;;;3.47;2.22;;;;;;;;;;4360906;32;72865;-62
2022/11/19 06:12:56;;;;;;;3.78;2.40;;;;;;;;;;4372376;32;65124;-64
2022/11/19 06:15:44;;;;;;;3.10;1.80;;;;;;;;;;4361775;32;66830;-63
2022/11/19 06:18:30;;;;;;;3.33;2.12;;;;;;;;;;4383306;32;59834;-62
2022/11/19 06:21:17;;;;;;;;;;;;;;;;;;4383174;32;71754;-63
2022/11/19 06:24:04;;;;;;;3.50;2.47;;;;;;;;;;4372259;32;65033;-63
2022/11/19 06:26:51;;;;;;;2.78;2.22;;;;;;;;;;4361715;32;68032;-62
2022/11/19 06:29:37;;;;;;;4.03;2.67;;;;;;;;;;4362056;32;59041;-63
2022/11/19 06:32:25;;;;;;;3.53;2.60;;;;;;;;;;4371534;32;71836;-63
2022/11/19 06:35:12;;;;;;;;;;;;;;;;;;4372461;32;69302;-62
2022/11/19 06:37:58;;;;;;;5.20;3.20;;;;;;;;;;4372451;32;67681;-64
2022/11/19 06:40:46;;;;;;;4.15;2.80;;;;;;;;;;4371772;32;71770;-63
2022/11/19 06:43:32;;;;;;;3.97;2.80;;;;;;;;;;4371666;32;67602;-62
2022/11/19 06:46:19;;;;;;;4.68;3.10;;;;;;;;;;4371915;32;69575;-62
2022/11/19 06:49:07;;;;;;;4.05;2.67;;;;;;;;;;4382389;32;67507;-62
2022/11/19 06:51:53;;;;;;;5.07;3.20;;;;;;;;;;4371667;32;70674;-63
2022/11/19 06:54:40;;;;;;;6.40;3.10;;;;;;;;;;4371432;32;66849;-63
2022/11/19 06:57:27;;;;;;;5.07;2.72;;;;;;;;;;4371624;32;68019;-63
2022/11/19 07:00:15;;;;;;;5.93;3.40;;;;;;;;;;4360478;32;61245;-63
2022/11/19 07:03:01;;;;;;;5.93;3.30;;;;;;;;;;4360225;32;70188;-63
2022/11/19 07:05:50;;;;;;;6.65;3.83;;;;;;;;;;4382547;32;69320;-63
2022/11/19 07:08:38;;;;;;;4.90;3.65;;;;;;;;;;4359921;32;66584;-63
2022/11/19 07:11:24;;;;;;;5.25;3.17;;;;;;;;;;4361347;32;59212;-63
2022/11/19 07:14:11;;;;;;;3.80;2.55;;;;;;;;;;4383281;32;70836;-61
2022/11/19 07:16:58;;;;;;;4.05;2.80;;;;;;;;;;4371442;32;69339;-62
2022/11/19 07:19:45;;;;;;;;;;;;;;;;;;4371831;32;67640;-63
2022/11/19 07:22:32;;;;;;;4.87;3.62;;;;;;;;;;4382235;32;71485;-63
2022/11/19 07:25:19;;;;;;;4.62;3.10;;;;;;;;;;4371005;32;66952;-62
2022/11/19 07:28:07;;;;;;;4.45;2.70;;;;;;;;;;4382090;32;66891;-63
2022/11/19 07:30:53;;;;;;;4.75;3.12;;;;;;;;;;4360388;32;60867;-63
2022/11/19 07:33:41;;;;;;;4.03;2.78;;;;;;;;;;4381905;32;70357;-62
2022/11/19 07:36:28;;;;;;;5.10;3.25;;;;;;;;;;4371488;32;66048;-63
2022/11/19 07:39:15;;;;;;;3.62;2.42;;;;;;;;;;4381983;32;67309;-63
2022/11/19 07:45:11;;;;;;;4.25;2.78;;;;;;;;;;4373613;32;70462;-63
2022/11/19 07:47:57;;;;;;;4.82;3.22;;;;;;;;;;4372070;32;69309;-64
2022/11/19 07:50:50;;;;;;;3.87;3.00;;;;;;;;;;4372356;32;66827;-63
2022/11/19 07:53:37;;;;;;;3.50;2.62;;;;;;;;;;4382486;32;71920;-61
2022/11/19 07:56:24;;;;;;;6.90;3.47;;;;;;;;;;4384495;32;65949;-62
2022/11/19 07:59:11;;;;;;;6.37;3.40;;;;;;;;;;4360292;32;70745;-62
2022/11/19 08:01:58;;;;;;;8.27;4.10;;;;;;;;;;4371240;32;67740;-63
2022/11/19 08:04:45;;;;;;;6.95;3.35;;;;;;;;;;4360212;32;72841;-62
2022/11/19 08:07:31;;;;;;;;;;;;;;;;;;4381832;32;64984;-63
2022/11/19 08:10:18;;;;;;;12.73;5.90;;;;;;;;;;4385014;32;67928;-62
2022/11/19 08:13:05;;;;;;;;;;;;;;;;;;4371815;32;58999;-63
2022/11/19 08:15:54;;;;;;;6.78;4.05;;;;;;;;;;4395496;32;69691;-63
2022/11/19 08:18:44;;;;;;;6.78;3.80;;;;;;;;;;4370925;32;68943;-62
2022/11/19 08:21:31;;;;;;;5.25;3.58;;;;;;;;;;4381961;32;67500;-63
2022/11/19 08:24:19;;;;;;;6.07;3.90;;;;;;;;;;4360134;32;59906;-63
2022/11/19 08:27:06;;;;;;;5.57;3.95;;;;;;;;;;4360042;32;70162;-63
2022/11/19 08:29:53;;;;;;;4.75;3.30;;;;;;;;;;4370971;32;69551;-63
2022/11/19 08:32:39;;;;;;;6.32;3.70;;;;;;;;;;4381635;32;67349;-63
2022/11/19 08:35:26;;;;;;;7.20;4.00;;;;;;;;;;4359491;32;72302;-62
2022/11/19 08:38:13;;;;;;;8.60;3.70;;;;;;;;;;4382145;32;66022;-63
2022/11/19 08:44:05;;;;;;;4.55;3.25;;;;;;;;;;4381606;32;60762;-62
2022/11/19 08:46:51;;;;;;;3.58;2.53;;;;;;;;;;4384331;32;70689;-62
2022/11/19 08:49:39;;;;;;;5.28;2.97;;;;;;;;;;4375509;32;64993;-62
2022/11/19 08:52:25;;;;;;;5.50;3.37;;;;;;;;;;4373849;32;68287;-62
2022/11/19 08:55:12;;;;;;;3.90;2.92;;;;;;;;;;4384721;32;60092;-62
2022/11/19 08:57:59;;;;;;;;;;;;;;;;;;4384605;32;71340;-62
2022/11/19 09:00:47;;;;;;;4.22;3.30;;;;;;;;;;4383331;32;69029;-63
2022/11/19 09:03:34;;;;;;;4.57;3.58;;;;;;;;;;4385806;32;67913;-62
2022/11/19 09:06:21;;;;;;;4.43;3.17;;;;;;;;;;4378950;32;70400;-65
2022/11/19 09:09:08;;;;;;;4.10;2.70;;;;;;;;;;4375511;32;65040;-63
2022/11/19 09:11:58;;;;;;;5.45;3.83;;;;;;;;;;4377123;32;67888;-61
2022/11/19 09:14:45;;;;;;;3.47;2.90;;;;;;;;;;4391067;32;66692;-63
2022/11/19 09:17:32;;;;;;;3.40;2.95;;;;;;;;;;4385245;32;72248;-63
2022/11/19 09:20:18;;;;;;;4.47;3.22;;;;;;;;;;4365393;32;67145;-62
2022/11/19 09:23:05;;;;;;;5.60;4.30;;;;;;;;;;4373321;32;67927;-64
2022/11/19 09:25:56;;;;;;;;;;;;;;;;;;4373176;32;60198;-62
2022/11/19 09:28:43;;;;;;;5.00;3.60;;;;;;;;;;4374360;32;70239;-61
2022/11/19 09:31:30;;;;;;;5.30;3.70;;;;;;;;;;4374931;32;68340;-63
2022/11/19 09:34:16;;;;;;;3.97;3.33;;;;;;;;;;4375663;32;67516;-62
2022/11/19 09:37:03;;;;;;;3.92;3.15;;;;;;;;;;4378233;32;72123;-65
2022/11/19 09:39:51;;;;;;;4.72;3.42;;;;;;;;;;4391069;32;69623;-62
2022/11/19 09:43:16;;;;;;;4.45;3.67;;;;;;;;;;4389244;32;68640;-64
2022/11/19 09:46:14;;;;;;;4.95;3.20;;;;;;;;;;4387359;32;67234;-62
2022/11/19 09:49:12;;;;;;;6.10;3.62;;;;;;;;;;4371967;32;71345;-61
2022/11/19 09:52:09;;;;;;;5.47;3.67;;;;;;;;;;4384423;32;65726;-63
2022/11/19 09:54:57;;;;;;;6.22;4.40;;;;;;;;;;4383223;32;67940;-61
2022/11/19 09:57:54;;;;;;;5.95;4.30;;;;;;;;;;4372684;32;60037;-62
2022/11/19 10:00:41;;;;;;;5.65;4.37;;;;;;;;;;4382715;32;70832;-63
2022/11/19 10:03:28;;;;;;;4.57;3.60;;;;;;;;;;4361213;32;69822;-62
2022/11/19 10:06:24;;;;;;;5.68;4.37;;;;;;;;;;4372096;32;67971;-63
2022/11/19 10:09:45;;;;;;;6.57;4.00;;;;;;;;;;4371823;32;61633;-62
2022/11/19 10:12:56;;;;;;;6.10;4.15;;;;;;;;;;4384087;32;70620;-63
2022/11/19 10:16:04;;;;;;;5.28;4.28;;;;;;;;;;4382626;32;69239;-63
2022/11/19 10:18:55;;;;;;;5.22;3.75;;;;;;;;;;4382672;32;67061;-63
2022/11/19 10:21:52;;;;;;;4.78;3.80;;;;;;;;;;4382498;32;71980;-64
2022/11/19 10:24:39;;;;;;;3.90;3.30;;;;;;;;;;4361104;32;66803;-63
2022/11/19 10:27:31;;;;;;;4.45;3.40;;;;;;;;;;4382945;32;67010;-63
2022/11/19 10:30:20;;;;;;;4.57;3.40;;;;;;;;;;4371988;32;66697;-64
2022/11/19 10:33:25;;;;;;;4.75;3.92;;;;;;;;;;4382423;32;70778;-65
2022/11/19 10:36:30;;;;;;;4.82;3.30;;;;;;;;;;4382339;32;66078;-64
2022/11/19 10:40:05;;;;;;;5.87;3.80;;;;;;;;;;4372158;32;67914;-64
2022/11/19 10:43:25;;;;;;;5.07;3.60;;;;;;;;;;4379958;32;57986;-64
2022/11/19 10:46:47;;;;;;;4.72;3.70;;;;;;;;;;4374972;32;69551;-64
2022/11/19 10:49:38;;;;;;;4.55;3.65;;;;;;;;;;4383038;32;69381;-63
2022/11/19 10:52:35;;;;;;;5.87;4.00;;;;;;;;;;4385117;32;68129;-63
2022/11/19 10:55:38;;;;;;;5.10;3.42;;;;;;;;;;4385337;32;71718;-64
2022/11/19 10:58:43;;;;;;;4.37;3.50;;;;;;;;;;4384968;32;70602;-64
2022/11/19 11:01:33;;;;;;;3.97;3.30;;;;;;;;;;4363648;32;69229;-63
2022/11/19 11:04:23;;;;;;;5.07;3.62;;;;;;;;;;4386553;32;66680;-63
2022/11/19 11:07:10;;;;;;;5.45;4.25;;;;;;;;;;4382897;32;70663;-63
2022/11/19 11:09:57;;;;;;;7.55;5.20;;;;;;;;;;4383486;32;66062;-63
2022/11/19 11:15:51;;;;;;;6.60;5.28;;;;;;;;;;4374308;32;61206;-64
2022/11/19 11:18:39;;;;;;;8.13;5.03;;;;;;;;;;4371816;32;70784;-64
2022/11/19 11:21:35;;;;;;;5.37;3.80;;;;;;;;;;4382262;32;69514;-64
2022/11/19 11:24:34;;;;;;;5.25;3.90;;;;;;;;;;4383358;32;68165;-64
2022/11/19 11:27:32;;;;;;;3.95;3.33;;;;;;;;;;4382345;32;60036;-64
2022/11/19 11:30:19;;;;;;;4.80;3.67;;;;;;;;;;4370624;32;70671;-63
2022/11/19 11:33:38;;;;;;;3.85;3.20;;;;;;;;;;4371423;32;69566;-63
2022/11/19 11:36:27;;;;;;;3.53;3.20;;;;;;;;;;4381872;32;66677;-63
2022/11/19 11:39:27;;;;;;;4.97;3.80;;;;;;;;;;4371227;32;71560;-64
2022/11/19 11:42:18;;;;;;;5.80;4.12;;;;;;;;;;4371410;32;65635;-64
2022/11/19 11:45:07;;;;;;;5.05;3.85;;;;;;;;;;4359898;32;67644;-64
2022/11/19 11:47:56;;;;;;;4.10;3.42;;;;;;;;;;4370728;32;59682;-63
2022/11/19 11:50:45;;;;;;;5.18;4.18;;;;;;;;;;4370487;32;72531;-64
2022/11/19 11:53:33;;;;;;;4.70;3.75;;;;;;;;;;4371044;32;65846;-64
2022/11/19 11:56:22;;;;;;;5.45;3.50;;;;;;;;;;4381332;32;67146;-65
2022/11/19 11:59:21;;;;;;;3.87;3.08;;;;;;;;;;4370602;32;58615;-64
2022/11/19 12:02:20;;;;;;;4.32;3.30;;;;;;;;;;4381557;32;70455;-63
2022/11/19 12:05:15;;;;;;;5.60;3.80;;;;;;;;;;4359802;32;70139;-63
2022/11/19 12:08:11;;;;;;;8.40;5.12;;;;;;;;;;4381065;32;67742;-63
2022/11/19 12:11:25;;;;;;;8.00;4.70;;;;;;;;;;4381176;32;70692;-64
2022/11/19 12:14:12;;;;;;;7.60;4.60;;;;;;;;;;4382895;32;66258;-64
2022/11/19 12:17:37;;;;;;;8.68;5.25;;;;;;;;;;4381341;32;69203;-64
2022/11/19 12:20:33;;;;;;;7.80;5.03;;;;;;;;;;4382442;32;67556;-63
2022/11/19 12:23:46;;;;;;;6.00;4.30;;;;;;;;;;4370517;32;72103;-64
2022/11/19 12:26:59;;;;;;;6.85;4.45;;;;;;;;;;4381286;32;66060;-64
2022/11/19 12:30:01;;;;;;;7.68;3.90;;;;;;;;;;4381230;32;67766;-64
2022/11/19 12:33:06;;;;;;;5.40;3.80;;;;;;;;;;4381386;32;58763;-63
2022/11/19 12:36:05;;;;;;;6.25;4.50;;;;;;;;;;4370671;32;70504;-63
2022/11/19 12:39:14;;;;;;;5.72;3.62;;;;;;;;;;4370300;32;69452;-63
2022/11/19 12:42:38;;;;;;;6.62;4.25;;;;;;;;;;4382540;32;66743;-64
2022/11/19 12:45:45;;;;;;;7.03;4.80;;;;;;;;;;4381353;32;60702;-64
2022/11/19 12:49:01;;;;;;;5.68;4.07;;;;;;;;;;4381007;32;70655;-62
2022/11/19 12:52:16;;;;;;;6.28;3.40;;;;;;;;;;4370684;32;69363;-62
2022/11/19 12:55:23;;;;;;;8.48;5.00;;;;;;;;;;4380648;32;68203;-63
2022/11/19 12:58:22;;;;;;;6.75;4.18;;;;;;;;;;4380734;32;71352;-64
2022/11/19 13:01:36;;;;;;;5.45;3.92;;;;;;;;;;4370192;32;66714;-63
2022/11/19 13:04:41;;;;;;;5.37;3.83;;;;;;;;;;4359346;32;67169;-64
2022/11/19 13:07:36;;;;;;;5.57;4.55;;;;;;;;;;4371535;32;60460;-64
2022/11/19 13:10:38;;;;;;;10.25;5.82;;;;;;;;;;4383440;32;72233;-62
2022/11/19 13:13:27;;;;;;;8.40;4.65;;;;;;;;;;4384834;32;65888;-64
2022/11/19 13:16:19;;;;;;;11.65;5.35;;;;;;;;;;4372913;32;67041;-64
2022/11/19 13:19:25;;;;;;;10.02;4.90;;;;;;;;;;4373113;32;60163;-64
2022/11/19 13:22:18;;;;;;;7.78;4.60;;;;;;;;;;4372376;32;71733;-63
2022/11/19 13:25:23;;;;;;;6.93;4.30;;;;;;;;;;4372671;32;69064;-63
2022/11/19 13:28:37;;;;;;;8.25;4.87;;;;;;;;;;4383401;32;67299;-64
2022/11/19 13:31:46;;;;;;;8.63;4.78;;;;;;;;;;4372724;32;70818;-65
2022/11/19 13:34:46;;;;;;;9.20;4.85;;;;;;;;;;4372334;32;66393;-64
2022/11/19 13:38:00;;;;;;;6.95;4.82;;;;;;;;;;4372344;32;68499;-65
2022/11/19 13:41:08;;;;;;;8.35;5.37;;;;;;;;;;4372677;32;67088;-64
2022/11/19 13:47:02;;;;;;;5.90;4.03;;;;;;;;;;4383491;32;65990;-62
2022/11/19 13:49:59;;;;;;;6.07;4.10;;;;;;;;;;4372566;32;67696;-63
2022/11/19 13:52:53;;;;;;;5.35;3.90;;;;;;;;;;4372737;32;60615;-63
2022/11/19 13:55:42;;;;;;;5.62;4.07;;;;;;;;;;4382970;32;70552;-63
2022/11/19 13:58:42;;;;;;;6.00;4.43;;;;;;;;;;4360863;32;67679;-63
2022/11/19 14:01:55;;;;;;;7.55;4.30;;;;;;;;;;4361183;32;68399;-63
2022/11/19 14:04:54;;;;;;;5.97;4.20;;;;;;;;;;4383132;32;59083;-63
2022/11/19 14:07:47;;;;;;;6.57;5.30;;;;;;;;;;4371781;32;70991;-63
2022/11/19 14:10:44;;;;;;;6.18;4.37;;;;;;;;;;4382574;32;69379;-63
2022/11/19 14:13:31;;;;;;;;;;;;;;;;;;4361305;32;68369;-63
2022/11/19 14:26:19;;;;;;;5.50;3.50;;;;;;;;;;4384261;32;60302;-64
2022/11/19 14:29:26;;;;;;;6.18;4.35;;;;;;;;;;4383796;32;70401;-63
2022/11/19 14:32:13;;;;;;;5.80;3.83;;;;;;;;;;4382699;32;64971;-64
2022/11/19 14:35:00;;;;;;;6.60;4.57;;;;;;;;;;4383917;32;67990;-65
2022/11/19 14:37:55;;;;;;;;;;;;;;;;;;4372411;32;60618;-63
2022/11/19 14:40:42;;;;;;;6.70;5.05;;;;;;;;;;4371017;32;70659;-63
2022/11/19 14:46:44;;;;;;;6.57;4.65;;;;;;;;;;4382738;32;67994;-63
2022/11/19 14:49:33;;;;;;;7.93;5.30;;;;;;;;;;4382289;32;70740;-64
2022/11/19 14:52:23;;;;;;;8.90;5.50;;;;;;;;;;4371801;32;64874;-63
2022/11/19 14:58:17;;;;;;;7.12;4.82;;;;;;;;;;3831079;37;43410;-64
2022/11/19 15:01:07;;;;;;;6.62;4.70;;;;;;;;;;4384152;32;59777;-63
2022/11/19 15:04:07;;;;;;;16.60;10.23;;;;;;;;;;4383554;32;70587;-64
2022/11/19 15:06:55;;;;;;;6.35;4.65;;;;;;;;;;4394219;32;68409;-64
2022/11/19 15:10:01;;;;;;;8.40;4.93;;;;;;;;;;4382635;32;67861;-64
2022/11/19 15:13:00;;;;;;;9.50;5.80;;;;;;;;;;4395390;32;71977;-64
2022/11/19 15:15:50;;;;;;;8.23;5.95;;;;;;;;;;4394121;32;65703;-64
2022/11/19 15:18:40;;;;;;;12.80;8.88;;;;;;;;;;4394245;32;66488;-64
2022/11/19 15:21:32;;;;;;;7.50;5.72;;;;;;;;;;4394227;32;59027;-62
2022/11/19 15:24:22;;;;;;;7.93;5.45;;;;;;;;;;4394108;32;71327;-64
2022/11/19 15:27:51;;;;;;;9.20;6.37;;;;;;;;;;4394267;32;65976;-63
2022/11/19 15:31:05;;;;;;;11.07;7.20;;;;;;;;;;4383644;32;67697;-64
2022/11/19 15:34:15;;;;;;;11.35;8.05;;;;;;;;;;4395259;32;60191;-64
2022/11/19 15:37:08;;;;;;;15.30;10.02;;;;;;;;;;4371678;32;69554;-63
2022/11/19 15:39:57;;;;;;;12.88;7.65;;;;;;;;;;4382474;32;69721;-63
2022/11/19 15:42:53;;;;;;;11.15;7.05;;;;;;;;;;4383279;32;66613;-64
2022/11/19 15:45:47;;;;;;;7.65;5.20;;;;;;;;;;4372305;32;71823;-64
2022/11/19 15:48:40;;;;;;;9.02;5.55;;;;;;;;;;4383245;32;65044;-64
2022/11/19 15:51:27;;;;;;;10.07;6.87;;;;;;;;;;4393624;32;68404;-64
2022/11/19 15:54:14;;;;;;;12.70;7.50;;;;;;;;;;4393196;32;68932;-64
2022/11/19 15:57:18;;;;;;;14.65;8.63;;;;;;;;;;4382202;32;71657;-64
2022/11/19 16:00:13;;;;;;;12.90;7.95;;;;;;;;;;4382351;32;67710;-63
2022/11/19 16:03:02;;;;;;;15.10;8.82;;;;;;;;;;4382778;32;67321;-65
2022/11/19 16:06:04;;;;;;;10.32;7.47;;;;;;;;;;4383297;32;60000;-63
2022/11/19 16:08:53;;;;;;;9.25;5.93;;;;;;;;;;4385608;32;70289;-64
2022/11/19 16:17:59;;;;;;;8.80;6.30;;;;;;;;;;4384753;32;59660;-64
2022/11/19 16:20:49;;;;;;;8.02;5.70;;;;;;;;;;4382521;32;71605;-64
2022/11/19 16:25:00;;;;;;;10.80;6.10;;;;;;;;;;4361826;32;69004;-64
2022/11/19 16:26:44;;;;;;;9.38;7.00;;;;;;;;;;4374131;32;68264;-64
2022/11/19 16:29:34;;;;;;;8.02;6.03;;;;;;;;;;4372332;32;70898;-63
2022/11/19 16:32:24;;;;;;;9.73;5.47;;;;;;;;;;4383011;32;66594;-64
2022/11/19 16:35:19;;;;;;;7.12;5.07;;;;;;;;;;4372541;32;67809;-64
2022/11/19 16:38:11;;;;;;;8.73;5.37;;;;;;;;;;4383252;32;60065;-64
2022/11/19 16:44:11;;;;;;;8.18;5.65;;;;;;;;;;4373881;32;66937;-64
2022/11/19 16:47:05;;;;;;;8.48;5.87;;;;;;;;;;4382962;32;66795;-64
2022/11/19 16:49:56;;;;;;;8.23;5.85;;;;;;;;;;4372736;32;60149;-64
2022/11/19 16:52:44;;;;;;;8.15;5.18;;;;;;;;;;4382786;32;70653;-63
2022/11/19 16:55:33;;;;;;;8.10;5.37;;;;;;;;;;4382717;32;69111;-64
2022/11/19 16:58:24;;;;;;;8.27;5.55;;;;;;;;;;4371506;32;68396;-63
2022/11/19 17:01:11;;;;;;;8.65;5.25;;;;;;;;;;4371528;32;71257;-64
2022/11/19 17:04:06;;;;;;;7.28;5.37;;;;;;;;;;4350390;32;66708;-65
2022/11/19 17:06:54;;;;;;;8.00;5.03;;;;;;;;;;4372503;32;66527;-64
2022/11/19 17:09:43;;;;;;;7.05;5.12;;;;;;;;;;4382666;32;67731;-64
2022/11/19 17:12:34;;;;;;;7.95;5.10;;;;;;;;;;4382635;32;71682;-64
2022/11/19 17:15:37;;;;;;;8.30;5.03;;;;;;;;;;4382734;32;65814;-62
2022/11/19 17:18:33;;;;;;;6.95;4.68;;;;;;;;;;3847393;37;43272;-64
2022/11/19 17:21:22;;;;;;;8.13;5.30;;;;;;;;;;4409964;32;58856;-65
2022/11/19 17:24:12;;;;;;;8.80;5.40;;;;;;;;;;4387998;32;71547;-64
2022/11/19 17:27:00;;;;;;;7.87;4.82;;;;;;;;;;4398880;32;69519;-64
2022/11/19 17:29:47;;;;;;;11.90;5.32;;;;;;;;;;4398801;32;67746;-63
2022/11/19 17:32:46;;;;;;;7.37;4.70;;;;;;;;;;4387621;32;73430;-64
2022/11/19 17:35:41;;;;;;;6.20;4.90;;;;;;;;;;4398835;32;65834;-64
2022/11/19 17:38:30;;;;;;;7.75;5.37;;;;;;;;;;4409428;32;66797;-64
2022/11/19 17:44:30;;;;;;;8.57;4.75;;;;;;;;;;4400470;32;71985;-64
2022/11/19 17:47:18;;;;;;;7.05;4.62;;;;;;;;;;4398507;32;64872;-64
2022/11/19 17:50:06;;;;;;;8.88;5.00;;;;;;;;;;4387872;32;67437;-64
2022/11/19 17:52:56;;;;;;;7.37;4.57;;;;;;;;;;4399199;32;60210;-63
2022/11/19 17:55:44;;;;;;;6.37;4.18;;;;;;;;;;4387587;32;69458;-63
2022/11/19 17:58:31;;;;;;;8.55;4.47;;;;;;;;;;4398246;32;68396;-64
2022/11/19 18:04:02;;;;;;;6.97;4.95;;;;;;;;;;3847313;37;43885;-63
2022/11/19 18:06:49;;;;;;;6.85;4.53;;;;;;;;;;4409448;32;61193;-63
2022/11/19 18:09:36;;;;;;;8.85;5.10;;;;;;;;;;4398698;32;69410;-64
2022/11/19 18:12:24;;;;;;;7.62;5.40;;;;;;;;;;4387746;32;70402;-64
2022/11/19 18:15:17;;;;;;;8.43;5.75;;;;;;;;;;4399019;32;67624;-64